Date,TemperatureHighF,TemperatureAvgF,TemperatureLowF,DewpointHighF,DewpointAvgF,DewpointLowF,HumidityHigh,HumidityAvg,HumidityLow,PressureMaxIn,PressureMinIn,WindSpeedMaxMPH,WindSpeedAvgMPH,GustSpeedMaxMPH,PrecipitationSumIn
2013-9-1,85.9,75.2,67.7,75.0,71.0,67.3,100,88,66,29.80,29.72,10,0,10,0.01
2013-9-2,86.5,76.5,70.9,75.4,71.0,61.4,99,85,59,29.84,29.74,3,0,9,0.00
2013-9-3,73.5,66.9,58.7,61.7,58.6,55.5,94,75,56,30.03,29.84,12,1,12,0.00
2013-9-4,61.8,60.0,57.5,58.3,57.5,56.3,96,92,87,30.05,30.02,0,0,0,0.00
2013-9-5,85.4,72.4,59.0,66.3,62.2,56.2,99,73,45,30.15,30.09,2,0,9,0.00
2013-9-6,81.6,69.3,58.6,59.8,53.7,49.9,79,59,37,30.20,30.07,3,1,9,0.00
2013-9-7,85.7,75.2,57.2,70.2,65.3,54.7,97,72,54,30.07,29.92,3,0,9,0.00
2013-9-8,89.7,77.7,66.6,72.3,68.7,65.6,98,76,50,29.95,29.88,8,0,8,0.00
2013-9-9,92.0,80.3,69.0,74.0,70.7,67.9,97,74,50,29.99,29.91,10,1,13,0.00
2013-9-10,93.6,82.0,74.0,78.8,73.7,70.6,92,77,58,30.09,29.97,7,1,10,0.00
2013-9-11,89.5,79.6,72.2,77.1,72.7,69.5,93,80,64,30.11,29.98,9,0,9,0.00
2013-9-12,78.3,74.2,65.4,73.6,70.7,64.5,97,89,70,29.98,29.83,8,1,8,0.29
2013-9-13,65.4,60.0,52.5,64.5,51.4,46.0,97,75,52,30.06,29.87,15,1,15,0.01
2013-9-14,69.7,57.5,47.2,49.2,45.8,41.8,92,68,38,30.17,30.06,10,1,10,0.00
2013-9-15,78.1,64.0,49.2,60.9,53.8,47.3,95,71,48,30.12,30.00,12,1,12,0.00
2013-9-16,70.9,64.2,59.0,61.4,57.7,53.5,93,80,60,30.24,30.04,8,2,13,0.02
2013-9-17,75.3,63.7,52.2,57.3,53.9,50.0,93,72,48,30.29,30.12,11,2,11,0.00
2013-9-18,79.2,67.9,60.3,67.6,61.9,54.5,95,82,64,30.13,30.03,10,1,10,0.03
2013-9-19,79.9,70.6,65.9,71.9,67.7,65.0,99,91,76,30.06,29.94,9,0,9,0.39
2013-9-20,86.8,73.9,67.7,72.7,69.5,67.0,100,88,61,29.97,29.75,36,1,36,1.27
2013-9-21,71.8,64.8,55.8,67.9,59.7,51.4,100,85,54,29.85,29.65,11,0,11,1.00
2013-9-22,68.0,57.4,47.5,52.0,48.7,45.8,99,75,50,29.99,29.84,15,1,15,0.00
2013-9-23,69.5,57.9,45.7,51.1,48.7,44.3,97,73,49,30.09,29.99,8,1,10,0.00
2013-9-24,74.2,60.5,48.4,60.4,53.2,46.4,94,78,58,30.06,29.89,9,1,9,0.00
2013-9-25,73.8,63.5,55.0,59.4,55.5,52.8,93,77,52,29.89,29.84,6,1,9,0.00
2013-9-26,77.2,62.5,48.6,62.0,55.7,48.3,100,81,53,30.03,29.88,10,0,10,0.00
2013-9-27,80.8,65.1,50.5,62.7,54.8,50.0,98,73,41,30.15,30.03,7,0,7,0.00
2013-9-28,81.7,66.8,52.6,61.4,57.3,51.7,99,74,46,30.15,30.03,11,1,11,0.00
2013-9-29,68.4,63.4,59.7,62.2,60.1,57.7,97,89,76,30.04,29.98,11,0,11,0.07
2013-9-30,73.5,65.2,60.8,65.2,62.2,60.2,98,90,74,30.01,29.92,6,0,6,0.04